Time;durP1;ratioP1;P1;durP2;ratioP2;P2;SDS_P1;SDS_P2;PMS_P1;PMS_P2;Temp;Humidity;BMP_temperature;BMP_pressure;BME280_temperature;BME280_humidity;BME280_pressure;Samples;Min_cycle;Max_cycle;Signal;HPM_P1;HPM_P2
2021/08/11 07:34:46;;;;;;;4.20;2.88;;;20.60;99.90;;;;;;12218104;27;20405;-58
2021/08/11 07:40:35;;;;;;;4.68;3.10;;;21.00;99.90;;;;;;12178372;27;20058;-56
2021/08/11 07:46:21;;;;;;;4.70;2.83;;;21.80;99.90;;;;;;12178934;27;20043;-55
2021/08/11 07:52:10;;;;;;;7.65;3.65;;;22.30;99.90;;;;;;12182039;27;20055;-56
2021/08/11 07:57:57;;;;;;;8.68;3.42;;;22.60;99.90;;;;;;12176348;27;20046;-54
2021/08/11 08:03:44;;;;;;;16.83;3.70;;;22.80;99.90;;;;;;12178525;27;20043;-56
2021/08/11 08:09:32;;;;;;;6.65;3.40;;;22.90;99.90;;;;;;12177445;27;20983;-56
2021/08/11 08:15:19;;;;;;;6.85;3.47;;;22.90;99.90;;;;;;12176437;27;20498;-57
2021/08/11 08:21:06;;;;;;;5.50;2.80;;;23.10;99.90;;;;;;12186960;27;20118;-56
2021/08/11 08:26:54;;;;;;;4.75;2.80;;;23.20;99.90;;;;;;12171978;27;20055;-54
2021/08/11 08:32:42;;;;;;;4.13;2.75;;;23.30;99.90;;;;;;12180778;27;20047;-56
2021/08/11 08:38:28;;;;;;;5.07;2.83;;;23.30;99.90;;;;;;12180729;27;20057;-57
2021/08/11 08:44:17;;;;;;;7.65;2.85;;;23.40;99.90;;;;;;12148207;27;20438;-56
2021/08/11 08:50:04;;;;;;;5.90;2.55;;;23.60;99.90;;;;;;12145333;27;20051;-55
2021/08/11 08:55:52;;;;;;;3.45;2.70;;;23.80;99.90;;;;;;12147452;27;20044;-57
2021/08/11 09:01:41;;;;;;;7.15;2.40;;;24.00;99.90;;;;;;12135494;27;20047;-56
2021/08/11 09:07:27;;;;;;;4.75;2.72;;;24.20;99.90;;;;;;12140969;27;20047;-56
2021/08/11 09:13:16;;;;;;;4.10;2.55;;;24.50;99.90;;;;;;12148277;27;20529;-56
2021/08/11 09:19:04;;;;;;;4.63;2.65;;;24.70;99.90;;;;;;12137534;27;20051;-57
2021/08/11 09:25:04;;;;;;;2.72;2.20;;;24.70;99.90;;;;;;12148403;27;20060;-57
2021/08/11 09:30:51;;;;;;;5.85;2.85;;;24.70;99.90;;;;;;12148175;27;20055;-58
2021/08/11 09:36:44;;;;;;;4.70;3.00;;;24.70;99.90;;;;;;12137768;27;20070;-57
2021/08/11 09:42:31;;;;;;;8.13;2.92;;;24.70;99.90;;;;;;12147080;27;20054;-57
2021/08/11 09:48:19;;;;;;;6.47;2.70;;;24.60;99.90;;;;;;12147755;27;20048;-58
2021/08/11 09:54:08;;;;;;;6.32;2.85;;;24.80;99.90;;;;;;12133363;27;20055;-57
2021/08/11 09:59:59;;;;;;;3.75;2.58;;;24.70;99.90;;;;;;12155668;27;20503;-58
2021/08/11 10:05:46;;;;;;;5.57;2.97;;;24.90;99.90;;;;;;12164507;28;20135;-59
2021/08/11 10:11:38;;;;;;;3.80;2.75;;;24.80;99.80;;;;;;12163552;28;20047;-58
2021/08/11 10:17:29;;;;;;;4.85;3.30;;;24.60;99.90;;;;;;12164956;28;20044;-59
2021/08/11 10:23:18;;;;;;;4.70;3.10;;;24.70;99.80;;;;;;12164135;28;20676;-57
2021/08/11 10:29:07;;;;;;;5.78;3.10;;;24.90;98.60;;;;;;12163852;28;20044;-57
2021/08/11 10:34:55;;;;;;;3.85;2.35;;;25.00;98.70;;;;;;12163513;28;20166;-58
2021/08/11 10:40:49;;;;;;;4.60;2.97;;;25.20;97.80;;;;;;12163728;27;20503;-58
2021/08/11 10:46:41;;;;;;;3.47;2.78;;;25.30;97.40;;;;;;12163977;28;20148;-58
2021/08/11 10:52:30;;;;;;;12.73;3.00;;;25.30;96.70;;;;;;12151080;27;20047;-58
2021/08/11 10:58:46;;;;;;;4.68;2.83;;;25.70;96.00;;;;;;12134106;27;20047;-58
2021/08/11 11:04:42;;;;;;;8.13;2.75;;;26.00;95.30;;;;;;11927044;28;20073;-58
2021/08/11 11:10:29;;;;;;;7.22;2.85;;;26.30;93.90;;;;;;11929925;28;20437;-58
2021/08/11 11:16:17;;;;;;;3.83;2.40;;;26.20;93.70;;;;;;11924988;28;20052;-56
2021/08/11 11:22:36;;;;;;;3.90;2.60;;;26.30;93.20;;;;;;11929468;28;20104;-57
2021/08/11 11:28:57;;;;;;;5.60;3.15;;;26.50;93.50;;;;;;11924106;28;20172;-55
2021/08/11 11:34:44;;;;;;;4.60;2.70;;;26.80;92.50;;;;;;11934007;28;20065;-58
2021/08/11 11:40:33;;;;;;;4.88;3.25;;;27.00;92.50;;;;;;12127794;28;20070;-59
2021/08/11 11:46:46;;;;;;;9.18;5.03;;;26.90;92.20;;;;;;12161693;28;20040;-59
2021/08/11 11:52:33;;;;;;;10.30;2.97;;;26.80;91.30;;;;;;12148500;27;20048;-57
2021/08/11 11:58:23;;;;;;;3.72;2.35;;;26.80;91.70;;;;;;12142707;28;20050;-57
2021/08/11 12:04:11;;;;;;;4.28;2.65;;;26.60;89.40;;;;;;12145753;28;20051;-58
2021/08/11 12:09:58;;;;;;;3.80;2.90;;;26.30;89.20;;;;;;12160180;28;20055;-59
2021/08/11 12:15:52;;;;;;;3.60;2.17;;;26.40;90.00;;;;;;12160421;28;20043;-59
2021/08/11 12:21:40;;;;;;;4.60;2.50;;;26.90;90.10;;;;;;12170102;28;20048;-59
2021/08/11 12:27:27;;;;;;;8.60;2.15;;;27.40;88.20;;;;;;12170026;27;20047;-59
2021/08/11 12:39:20;;;;;;;3.50;1.92;;;27.50;84.30;;;;;;12168862;28;20055;-58
2021/08/11 12:45:07;;;;;;;2.50;1.92;;;27.70;78.10;;;;;;12169074;28;20055;-55
2021/08/11 12:50:57;;;;;;;3.47;2.40;;;27.50;77.10;;;;;;12163162;27;20539;-59
2021/08/11 12:56:55;;;;;;;2.30;2.10;;;27.80;80.20;;;;;;12136247;27;20048;-59
2021/08/11 13:02:43;;;;;;;3.53;2.22;;;28.00;77.80;;;;;;12140994;27;20040;-58
2021/08/11 13:08:40;;;;;;;2.13;1.67;;;28.10;79.50;;;;;;12141835;27;20498;-59
2021/08/11 13:15:00;;;;;;;2.20;1.92;;;28.40;75.60;;;;;;12137888;27;20050;-59
2021/08/11 13:20:49;;;;;;;2.92;1.90;;;28.50;77.60;;;;;;12138049;27;20100;-59
2021/08/11 13:26:37;;;;;;;2.42;1.63;;;28.70;76.00;;;;;;12147259;27;20036;-59
2021/08/11 13:32:24;;;;;;;2.50;1.95;;;28.90;75.60;;;;;;12135997;27;20047;-59
2021/08/11 13:38:11;;;;;;;1.80;1.70;;;29.00;72.80;;;;;;12144248;27;20047;-59
2021/08/11 13:44:00;;;;;;;2.53;2.00;;;29.00;72.10;;;;;;12142948;27;20143;-58
2021/08/11 13:49:46;;;;;;;3.28;2.47;;;28.90;72.60;;;;;;12140145;27;20044;-58
2021/08/11 13:55:33;;;;;;;3.72;2.17;;;28.70;71.40;;;;;;12138098;27;20035;-59
2021/08/11 14:01:21;;;;;;;4.10;2.28;;;28.60;73.50;;;;;;12145343;27;20056;-59
2021/08/11 14:07:08;;;;;;;1.90;1.63;;;28.90;73.80;;;;;;12133734;27;20450;-59
2021/08/11 14:12:55;;;;;;;2.15;1.95;;;29.00;72.90;;;;;;12140814;27;20056;-59
2021/08/11 14:18:59;;;;;;;5.18;2.17;;;29.30;72.70;;;;;;12172952;27;20071;-57
2021/08/11 14:24:46;;;;;;;4.22;2.35;;;28.90;71.60;;;;;;12136209;27;20426;-59
2021/08/11 14:30:33;;;;;;;3.63;2.60;;;28.80;72.90;;;;;;12141868;27;20053;-58
2021/08/11 14:36:22;;;;;;;6.40;2.70;;;29.20;71.80;;;;;;12137264;27;20046;-58
2021/08/11 14:42:09;;;;;;;3.05;2.65;;;29.30;72.40;;;;;;12140791;27;20048;-59
2021/08/11 14:47:56;;;;;;;4.05;2.83;;;29.40;70.00;;;;;;12139768;27;20040;-59
2021/08/11 14:53:44;;;;;;;3.40;2.25;;;29.10;70.80;;;;;;12140320;27;20096;-57
2021/08/11 14:59:31;;;;;;;5.55;2.70;;;29.10;71.70;;;;;;12129199;27;20414;-59
2021/08/11 15:05:18;;;;;;;4.15;2.75;;;29.30;71.10;;;;;;12156451;27;20052;-59
2021/08/11 15:11:06;;;;;;;6.75;3.30;;;29.30;71.10;;;;;;12162452;28;20039;-58
2021/08/11 15:16:53;;;;;;;6.20;3.13;;;29.20;71.80;;;;;;12162389;28;21336;-59
2021/08/11 15:22:40;;;;;;;5.97;2.88;;;29.00;73.30;;;;;;12162052;28;20044;-59
2021/08/11 15:28:28;;;;;;;6.35;2.80;;;29.00;72.60;;;;;;12161719;28;20522;-59
2021/08/11 15:34:15;;;;;;;5.38;3.15;;;28.90;72.50;;;;;;12161504;28;20058;-58
2021/08/11 15:40:06;;;;;;;3.55;2.63;;;28.70;73.70;;;;;;12161466;28;20532;-58
2021/08/11 15:45:58;;;;;;;5.28;2.78;;;28.60;76.80;;;;;;12161397;28;20507;-58
2021/08/11 15:51:45;;;;;;;5.47;2.72;;;28.40;76.30;;;;;;12148199;27;20684;-58
2021/08/11 15:57:32;;;;;;;5.32;2.63;;;28.30;76.10;;;;;;12149827;27;20035;-56
2021/08/11 16:03:20;;;;;;;5.68;3.75;;;28.10;77.20;;;;;;12141160;27;20530;-59
2021/08/11 16:09:07;;;;;;;3.92;3.08;;;28.20;78.30;;;;;;12141164;27;20042;-57
2021/08/11 16:14:54;;;;;;;5.55;2.75;;;28.50;77.30;;;;;;12039039;22;20049;-78
2021/08/11 16:20:42;;;;;;;5.13;2.72;;;29.30;76.50;;;;;;11983788;28;20068;-78
2021/08/11 16:26:30;;;;;;;6.00;2.78;;;30.70;69.20;;;;;;12000382;28;20053;-79
2021/08/11 16:32:16;;;;;;;3.83;3.00;;;30.10;70.20;;;;;;12005327;28;20161;-77
2021/08/11 16:38:05;;;;;;;4.43;3.20;;;29.50;72.20;;;;;;11995218;28;20055;-78
2021/08/11 16:43:52;;;;;;;8.07;3.13;;;30.00;73.90;;;;;;11998662;28;20942;-78
2021/08/11 16:49:38;;;;;;;4.78;2.90;;;30.70;72.10;;;;;;11985266;28;20915;-77
2021/08/11 16:55:30;;;;;;;8.75;3.58;;;30.20;70.80;;;;;;11995129;28;20052;-77
2021/08/11 17:01:17;;;;;;;4.88;2.80;;;29.80;74.90;;;;;;11995270;28;20060;-78
2021/08/11 17:07:04;;;;;;;5.40;2.50;;;32.70;68.40;;;;;;11993799;28;20064;-77
2021/08/11 17:12:52;;;;;;;3.13;2.75;;;34.50;61.30;;;;;;11993594;28;20048;-77
2021/08/11 17:18:39;;;;;;;8.80;3.70;;;32.90;63.60;;;;;;11988936;28;20558;-77
2021/08/11 17:24:26;;;;;;;6.15;3.20;;;32.00;67.00;;;;;;11989550;28;20045;-78
2021/08/11 17:30:16;;;;;;;3.05;2.72;;;32.90;65.90;;;;;;11991297;28;20049;-77
2021/08/11 17:36:03;;;;;;;4.78;3.33;;;33.90;62.80;;;;;;11987420;28;20053;-77
2021/08/11 17:41:50;;;;;;;2.80;2.50;;;33.90;65.80;;;;;;11987032;28;20110;-78
2021/08/11 17:47:38;;;;;;;3.70;3.05;;;35.10;64.80;;;;;;11989443;28;20102;-78
2021/08/11 17:53:25;;;;;;;3.60;2.80;;;35.50;64.20;;;;;;11991050;28;20041;-78
2021/08/11 17:59:12;;;;;;;5.15;3.00;;;34.90;64.50;;;;;;11992210;28;20052;-76
2021/08/11 18:05:00;;;;;;;4.63;3.15;;;34.30;66.70;;;;;;11992268;28;20072;-77
2021/08/11 18:10:47;;;;;;;6.72;2.97;;;32.50;70.90;;;;;;11991530;28;20060;-76
2021/08/11 18:16:35;;;;;;;4.35;3.17;;;31.10;75.20;;;;;;11990224;28;20095;-77
2021/08/11 18:22:23;;;;;;;4.43;3.38;;;30.00;78.00;;;;;;11990709;28;20044;-77
2021/08/11 18:28:10;;;;;;;7.60;3.92;;;29.20;80.70;;;;;;11990468;28;20512;-78
2021/08/11 18:33:57;;;;;;;5.25;3.00;;;28.80;82.20;;;;;;11987394;28;20503;-78
2021/08/11 18:39:45;;;;;;;4.38;3.55;;;28.30;84.00;;;;;;11985337;28;20411;-78
2021/08/11 18:45:32;;;;;;;7.15;3.78;;;27.90;84.90;;;;;;11988551;28;20130;-77
2021/08/11 18:51:19;;;;;;;8.55;3.60;;;27.50;86.00;;;;;;11986816;28;20053;-76
2021/08/11 18:57:07;;;;;;;7.63;3.47;;;27.20;87.00;;;;;;11989346;28;20114;-77
2021/08/11 19:03:00;;;;;;;6.95;4.15;;;26.70;87.50;;;;;;11997458;28;20052;-81
2021/08/11 19:08:52;;;;;;;8.93;3.83;;;26.40;88.40;;;;;;11993310;28;20064;-81
2021/08/11 19:14:44;;;;;;;6.63;4.32;;;26.00;89.00;;;;;;11996233;28;20455;-81
2021/08/11 19:20:34;;;;;;;7.05;3.67;;;25.80;90.10;;;;;;11995364;28;20094;-81
2021/08/11 19:26:32;;;;;;;9.50;3.70;;;25.70;90.40;;;;;;11997639;28;20091;-82
2021/08/11 19:32:25;;;;;;;5.93;4.50;;;25.50;90.50;;;;;;11997821;28;20037;-81
2021/08/11 19:38:17;;;;;;;9.27;4.53;;;25.40;90.90;;;;;;11997185;28;20442;-81
2021/08/11 19:44:11;;;;;;;6.18;4.43;;;25.40;91.20;;;;;;12002439;28;20041;-81
2021/08/11 19:50:00;;;;;;;6.35;4.43;;;25.30;91.30;;;;;;11996080;28;20074;-80
2021/08/11 19:55:53;;;;;;;7.10;4.28;;;25.20;91.40;;;;;;11996179;28;20548;-82
2021/08/11 20:01:40;;;;;;;6.88;4.22;;;25.10;91.80;;;;;;11997433;28;20061;-80
2021/08/11 20:07:28;;;;;;;12.13;4.70;;;25.00;91.90;;;;;;11994298;28;20057;-80
2021/08/11 20:13:17;;;;;;;6.53;4.55;;;25.00;92.00;;;;;;12006852;28;20037;-80
2021/08/11 20:19:08;;;;;;;9.88;4.88;;;24.90;92.30;;;;;;11999331;28;20404;-80
2021/08/11 20:25:16;;;;;;;6.97;4.05;;;24.80;92.60;;;;;;12002997;28;20046;-79
2021/08/11 20:31:05;;;;;;;6.28;4.15;;;24.80;92.70;;;;;;11995012;28;20053;-80
2021/08/11 20:36:52;;;;;;;5.75;4.25;;;24.70;92.90;;;;;;11995929;28;20060;-81
2021/08/11 20:42:42;;;;;;;7.90;4.43;;;24.70;93.20;;;;;;12001688;28;20045;-80
2021/08/11 20:48:31;;;;;;;10.27;4.63;;;24.70;93.10;;;;;;12003787;28;20056;-80
2021/08/11 20:54:22;;;;;;;8.43;4.40;;;24.60;93.40;;;;;;12004881;28;20045;-80
2021/08/11 21:00:15;;;;;;;7.05;4.05;;;24.60;93.90;;;;;;12000485;28;20067;-79
2021/08/11 21:06:05;;;;;;;;;;;24.60;94.00;;;;;;12111448;22;20424;-79
2021/08/11 21:11:52;;;;;;;8.23;4.53;;;24.60;94.00;;;;;;11963846;28;20353;-80
2021/08/11 21:17:40;;;;;;;6.50;4.53;;;24.40;94.00;;;;;;11962730;28;20508;-81
2021/08/11 21:35:18;;;;;;;7.32;4.35;;;24.30;94.50;;;;;;12004655;28;20052;-81
2021/08/11 21:41:22;;;;;;;8.57;4.57;;;24.20;94.40;;;;;;12007160;28;20056;-82
2021/08/11 21:47:09;;;;;;;13.00;5.18;;;24.20;94.70;;;;;;12006474;28;20120;-80
2021/08/11 21:53:42;;;;;;;11.23;5.25;;;24.10;94.90;;;;;;12051085;22;20109;-82
2021/08/11 21:59:29;;;;;;;9.88;4.68;;;24.00;95.20;;;;;;12048985;28;20060;-80
2021/08/11 22:05:17;;;;;;;9.30;5.38;;;24.00;95.30;;;;;;12048897;28;20040;-81
2021/08/11 22:11:06;;;;;;;9.65;5.35;;;23.90;95.20;;;;;;12046899;28;20077;-80
2021/08/11 22:16:53;;;;;;;12.82;6.07;;;23.80;95.40;;;;;;12047482;28;20056;-81
2021/08/11 22:22:41;;;;;;;8.68;5.28;;;23.80;95.60;;;;;;12044518;28;20052;-80
